Logan Peak - 24 Hour Table
Date & TimeSolar
Radiation
(W/m²)
Wind
Speed
(mph)
Wind
Direction
(degrees)
Air
Temperature
(°F)
Relative
Humidity
(%)
Barometeric
Pressure
(inHg)
2017/12/15 18:00 0 30.7 200 26.2 14 29.76
2017/12/15 17:00 28 31.8 195 26.3 12 29.77
2017/12/15 16:00 135 32.4 205 25.7 12 29.78
2017/12/15 15:00 225 30.9 205 26.2 16 29.81
2017/12/15 14:00 372 29.9 201 27.7 17 29.82
2017/12/15 13:00 414 27.2 209 28.7 16 29.85
2017/12/15 12:00 397 20.6 232 29.9 17 29.87
2017/12/15 11:00 344 25.7 234 29.6 12 29.89
2017/12/15 10:00 231 25.1 235 27.8 19 29.89
2017/12/15 09:00 37 23.9 240 24.9 26 29.89
2017/12/15 08:00 2 23.3 246 24.1 40 29.90
2017/12/15 07:00 0 24.0 253 23.1 42 29.91
2017/12/15 06:00 0 24.7 254 22.7 53 29.92
2017/12/15 05:00 0 26.4 252 21.1 59 29.92
2017/12/15 04:00 0 27.8 253 21.6 77 29.93
2017/12/15 03:00 0 23.4 258 22.7 62 29.93
2017/12/15 02:00 0 21.5 267 23.4 50 29.94
2017/12/15 01:00 0 23.4 265 22.7 51 29.94
2017/12/15 00:00 0 25.5 264 22.5 52 29.94
2017/12/14 23:00 0 22.0 270 23.5 60 29.96
2017/12/14 22:00 0 24.7 276 23.9 43 29.95
2017/12/14 21:00 0 23.3 278 25.5 41 29.96
2017/12/14 20:00 0 23.0 289 26.6 19 29.97
2017/12/14 19:00 0 20.0 298 25.0 21 29.95